createdAt,value
2017-03-15T00:00:03.896Z,99.99
2017-03-15T00:00:18.130Z,99.99
2017-03-15T00:00:32.326Z,99.99
2017-03-15T00:00:46.535Z,99.99
2017-03-15T00:01:00.723Z,99.99
2017-03-15T00:01:14.863Z,99.99
2017-03-15T00:01:29.072Z,99.99
2017-03-15T00:01:43.310Z,99.99
2017-03-15T00:01:57.533Z,99.99
2017-03-15T00:02:11.722Z,99.99
2017-03-15T00:02:25.838Z,99.99
2017-03-15T00:02:40.026Z,99.99
2017-03-15T00:02:54.203Z,99.99
2017-03-15T00:03:08.367Z,99.99
2017-03-15T00:03:22.496Z,99.99
2017-03-15T00:03:36.641Z,99.99
2017-03-15T00:03:50.923Z,99.99
2017-03-15T00:04:05.088Z,99.99
2017-03-15T00:04:19.275Z,99.99
2017-03-15T00:04:33.392Z,99.99
2017-03-15T00:04:47.600Z,99.99
2017-03-15T00:05:01.715Z,99.99
2017-03-15T00:05:15.854Z,99.99
2017-03-15T00:05:30.027Z,99.99
2017-03-15T00:05:44.265Z,99.99
2017-03-15T00:05:58.487Z,99.99
2017-03-15T00:06:12.631Z,99.99
2017-03-15T00:06:26.805Z,99.99
2017-03-15T00:06:41.023Z,99.99
2017-03-15T00:06:55.215Z,99.99
2017-03-15T00:07:09.527Z,99.99
2017-03-15T00:07:23.721Z,99.99
2017-03-15T00:07:37.966Z,99.99
2017-03-15T00:07:52.182Z,99.99
2017-03-15T00:08:06.339Z,99.99
2017-03-15T00:08:20.452Z,99.99
2017-03-15T00:08:34.638Z,99.99
2017-03-15T00:08:49.028Z,99.99
2017-03-15T00:09:03.206Z,99.99
2017-03-15T00:09:17.638Z,99.99
2017-03-15T00:09:31.832Z,99.99
2017-03-15T00:09:45.962Z,99.99
2017-03-15T00:10:00.107Z,99.99
2017-03-15T00:10:14.295Z,99.99
2017-03-15T00:10:28.539Z,99.99
2017-03-15T00:10:42.679Z,99.99
2017-03-15T00:10:56.793Z,99.99
2017-03-15T00:11:10.959Z,99.99
2017-03-15T00:11:25.115Z,99.99
2017-03-15T00:11:39.301Z,99.99
2017-03-15T00:11:53.469Z,99.99
2017-03-15T00:12:07.635Z,99.99
2017-03-15T00:12:21.823Z,99.99
2017-03-15T00:12:35.988Z,99.99
2017-03-15T00:12:50.184Z,99.99
2017-03-15T00:13:04.441Z,99.99
2017-03-15T00:13:18.642Z,99.99
2017-03-15T00:13:32.829Z,99.99
2017-03-15T00:13:46.977Z,99.99
2017-03-15T00:14:01.113Z,99.99
2017-03-15T00:14:15.343Z,99.99
2017-03-15T00:14:29.508Z,99.99
2017-03-15T00:14:43.735Z,99.99
2017-03-15T00:14:57.956Z,99.99
2017-03-15T00:15:12.298Z,99.99
2017-03-15T00:15:26.482Z,99.99
2017-03-15T00:15:40.688Z,99.99
2017-03-15T00:15:54.796Z,99.99
2017-03-15T00:16:09.014Z,99.99
2017-03-15T00:16:23.165Z,99.99
2017-03-15T00:16:37.381Z,99.99
2017-03-15T00:16:51.537Z,99.99
2017-03-15T00:17:05.786Z,99.99
2017-03-15T00:17:20.002Z,99.99
2017-03-15T00:17:34.189Z,99.99
2017-03-15T00:17:48.411Z,99.99
2017-03-15T00:18:02.606Z,99.99
2017-03-15T00:18:16.832Z,99.99
2017-03-15T00:18:31.026Z,99.99
2017-03-15T00:18:45.206Z,99.99
2017-03-15T00:18:59.393Z,99.99
2017-03-15T00:19:13.609Z,99.99
2017-03-15T00:19:27.767Z,99.99
2017-03-15T00:19:41.912Z,99.99
2017-03-15T00:19:56.146Z,99.99
2017-03-15T00:20:10.335Z,99.99
2017-03-15T00:20:24.458Z,99.99
2017-03-15T00:20:39.084Z,99.99
2017-03-15T00:20:53.298Z,99.99
2017-03-15T00:21:07.493Z,99.99
2017-03-15T00:21:21.701Z,99.99
2017-03-15T00:21:35.796Z,99.99
2017-03-15T00:21:49.960Z,99.99
2017-03-15T00:22:04.133Z,99.99
2017-03-15T00:22:18.293Z,99.99
2017-03-15T00:22:32.446Z,99.99
2017-03-15T00:22:46.627Z,99.99
2017-03-15T00:23:00.807Z,99.99
2017-03-15T00:23:15.068Z,99.99
2017-03-15T00:23:29.255Z,99.99
2017-03-15T00:23:43.467Z,99.99
2017-03-15T00:23:57.649Z,99.99
2017-03-15T00:24:12.018Z,99.99
2017-03-15T00:24:26.173Z,99.99
2017-03-15T00:24:40.404Z,99.99
2017-03-15T00:24:54.583Z,99.99
2017-03-15T00:25:08.753Z,99.99
2017-03-15T00:25:22.867Z,99.99
2017-03-15T00:25:37.007Z,99.99
2017-03-15T00:25:51.185Z,99.99
2017-03-15T00:26:05.319Z,99.99
2017-03-15T00:26:19.540Z,99.99
2017-03-15T00:26:33.715Z,99.99
2017-03-15T00:26:47.887Z,99.99
2017-03-15T00:27:02.124Z,99.99
2017-03-15T00:27:16.271Z,99.99
2017-03-15T00:27:30.462Z,99.99
2017-03-15T00:27:44.598Z,99.99
2017-03-15T00:27:58.791Z,99.99
2017-03-15T00:28:12.987Z,99.99
2017-03-15T00:28:27.206Z,99.99
2017-03-15T00:28:41.431Z,99.99
2017-03-15T00:28:55.636Z,99.99
2017-03-15T00:29:09.774Z,99.99
2017-03-15T00:29:23.955Z,99.99
2017-03-15T00:29:38.211Z,99.99
2017-03-15T00:29:52.388Z,99.99
2017-03-15T00:30:06.539Z,99.99
2017-03-15T00:30:20.733Z,99.99
2017-03-15T00:30:34.925Z,99.99
2017-03-15T00:30:49.100Z,99.99
2017-03-15T00:31:03.315Z,99.99
2017-03-15T00:31:17.669Z,99.99
2017-03-15T00:31:31.858Z,99.99
2017-03-15T00:31:46.036Z,99.99
2017-03-15T00:32:00.262Z,99.99
2017-03-15T00:32:14.500Z,99.99
2017-03-15T00:32:28.888Z,99.99
2017-03-15T00:32:43.038Z,99.99
2017-03-15T00:32:57.239Z,99.99
2017-03-15T00:33:11.470Z,99.99
2017-03-15T00:33:25.655Z,99.99
2017-03-15T00:33:39.855Z,99.99
2017-03-15T00:33:54.002Z,99.99
2017-03-15T00:34:08.524Z,99.99
2017-03-15T00:34:22.669Z,99.99
2017-03-15T00:34:36.832Z,99.99
2017-03-15T00:34:51.072Z,99.99
2017-03-15T00:35:05.523Z,99.99
2017-03-15T00:35:19.748Z,99.99
2017-03-15T00:35:33.869Z,99.99
2017-03-15T00:35:48.010Z,99.99
2017-03-15T00:36:02.214Z,99.99
2017-03-15T00:36:16.347Z,99.99
2017-03-15T00:36:30.483Z,99.99
2017-03-15T00:36:44.666Z,99.99
2017-03-15T00:36:58.885Z,99.99
2017-03-15T00:37:13.041Z,99.99
2017-03-15T00:37:27.214Z,99.99
2017-03-15T00:37:41.393Z,99.99
2017-03-15T00:37:55.570Z,99.99
2017-03-15T00:38:09.787Z,99.99
2017-03-15T00:38:23.980Z,99.99
2017-03-15T00:38:38.159Z,99.99
2017-03-15T00:38:52.306Z,99.99
2017-03-15T00:39:06.461Z,99.99
2017-03-15T00:39:20.805Z,99.99
2017-03-15T00:39:34.900Z,99.99
2017-03-15T00:39:49.019Z,99.99
2017-03-15T00:40:03.164Z,99.99
2017-03-15T00:40:17.287Z,99.99
2017-03-15T00:40:31.461Z,99.99
2017-03-15T00:40:45.614Z,99.99
2017-03-15T00:40:59.759Z,99.84
2017-03-15T00:41:13.878Z,99.84
2017-03-15T00:41:28.029Z,99.99
2017-03-15T00:41:42.134Z,99.99
2017-03-15T00:41:56.301Z,99.99
2017-03-15T00:42:10.451Z,99.99
2017-03-15T00:42:24.593Z,99.74
2017-03-15T00:42:38.783Z,99.99
2017-03-15T00:42:52.953Z,99.99
2017-03-15T00:43:07.129Z,99.99
2017-03-15T00:43:21.233Z,99.55
2017-03-15T00:43:35.393Z,99.45
2017-03-15T00:43:49.524Z,99.74
2017-03-15T00:44:03.732Z,99.99
2017-03-15T00:44:17.914Z,99.84
2017-03-15T00:44:32.028Z,99.99
2017-03-15T00:44:46.265Z,99.35
2017-03-15T00:45:00.670Z,99.26
2017-03-15T00:45:14.864Z,99.26
2017-03-15T00:45:29.014Z,99.45
2017-03-15T00:45:43.135Z,99.45
2017-03-15T00:45:57.286Z,99.35
2017-03-15T00:46:11.431Z,99.45
2017-03-15T00:46:25.559Z,99.4
2017-03-15T00:46:39.737Z,99.4
2017-03-15T00:46:53.921Z,99.5
2017-03-15T00:47:08.104Z,99.59
2017-03-15T00:47:22.243Z,99.11
2017-03-15T00:47:36.432Z,99.21
2017-03-15T00:47:50.618Z,98.72
2017-03-15T00:48:04.819Z,98.82
2017-03-15T00:48:19.047Z,98.72
2017-03-15T00:48:33.174Z,98.34
2017-03-15T00:48:47.400Z,98.34
2017-03-15T00:49:01.638Z,98.15
2017-03-15T00:49:15.811Z,98.15
2017-03-15T00:49:30.255Z,97.96
2017-03-15T00:49:44.397Z,97.76
2017-03-15T00:49:58.591Z,97.38
2017-03-15T00:50:12.800Z,97.38
2017-03-15T00:50:27.001Z,96.61
2017-03-15T00:50:41.204Z,96.51
2017-03-15T00:50:55.374Z,96.03
2017-03-15T00:51:09.429Z,95.64
2017-03-15T00:51:23.551Z,95.74
2017-03-15T00:51:37.710Z,95.07
2017-03-15T00:51:51.933Z,94.97
2017-03-15T00:52:06.106Z,94.97
2017-03-15T00:52:20.286Z,94.78
2017-03-15T00:52:34.426Z,94.68
2017-03-15T00:52:48.581Z,95.07
2017-03-15T00:53:02.730Z,94.97
2017-03-15T00:53:16.871Z,94.97
2017-03-15T00:53:31.051Z,94.59
2017-03-15T00:53:45.216Z,94.68
2017-03-15T00:53:59.334Z,94.01
2017-03-15T00:54:13.496Z,93.87
2017-03-15T00:54:27.858Z,94.01
2017-03-15T00:54:42.038Z,94.25
2017-03-15T00:54:56.168Z,93.43
2017-03-15T00:55:10.435Z,93.19
2017-03-15T00:55:24.621Z,93
2017-03-15T00:55:38.802Z,92.9
2017-03-15T00:55:52.933Z,92.71
2017-03-15T00:56:07.083Z,92.03
2017-03-15T00:56:21.396Z,92.32
2017-03-15T00:56:35.569Z,92.32
2017-03-15T00:56:49.676Z,91.36
2017-03-15T00:57:03.850Z,91.65
2017-03-15T00:57:18.038Z,91.46
2017-03-15T00:57:32.194Z,90.97
2017-03-15T00:57:46.409Z,90.5
2017-03-15T00:58:00.553Z,90.78
2017-03-15T00:58:14.736Z,90.69
2017-03-15T00:58:28.888Z,90.3
2017-03-15T00:58:43.113Z,90.11
2017-03-15T00:58:57.304Z,89.82
2017-03-15T00:59:11.519Z,89.82
2017-03-15T00:59:25.651Z,89.63
2017-03-15T00:59:39.793Z,89.53
2017-03-15T00:59:54.002Z,89.05
2017-03-15T01:00:08.139Z,88.28
2017-03-15T01:00:22.295Z,88.47
2017-03-15T01:00:36.491Z,87.7
2017-03-15T01:00:50.673Z,87.8
2017-03-15T01:01:04.848Z,87.51
2017-03-15T01:01:18.982Z,86.93
2017-03-15T01:01:33.117Z,86.83
2017-03-15T01:01:47.296Z,87.32
2017-03-15T01:02:01.504Z,87.12
2017-03-15T01:02:15.691Z,87.12
2017-03-15T01:02:29.821Z,86.83
2017-03-15T01:02:43.985Z,86.45
2017-03-15T01:02:58.157Z,86.65
2017-03-15T01:03:12.299Z,86.65
2017-03-15T01:03:26.505Z,86.93
2017-03-15T01:03:40.698Z,86.65
2017-03-15T01:03:54.894Z,86.55
2017-03-15T01:04:08.984Z,86.55
2017-03-15T01:04:23.147Z,86.45
2017-03-15T01:04:37.313Z,86.35
2017-03-15T01:04:51.507Z,86.45
2017-03-15T01:05:05.655Z,86.45
2017-03-15T01:05:19.802Z,86.55
2017-03-15T01:05:33.898Z,86.55
2017-03-15T01:05:48.071Z,86.35
2017-03-15T01:06:02.295Z,86.55
2017-03-15T01:06:16.506Z,86.35
2017-03-15T01:06:30.707Z,86.35
2017-03-15T01:06:44.895Z,86.55
2017-03-15T01:06:59.099Z,86.55
2017-03-15T01:07:13.242Z,86.55
2017-03-15T01:07:27.370Z,86.26
2017-03-15T01:07:41.548Z,86.55
2017-03-15T01:07:55.705Z,86.55
2017-03-15T01:08:09.905Z,86.35
2017-03-15T01:08:24.089Z,86.26
2017-03-15T01:08:38.265Z,86.49
2017-03-15T01:08:52.463Z,86.21
2017-03-15T01:09:06.693Z,86.3
2017-03-15T01:09:20.901Z,86.49
2017-03-15T01:09:35.296Z,86.69
2017-03-15T01:09:49.433Z,86.59
2017-03-15T01:10:03.585Z,86.78
2017-03-15T01:10:17.776Z,86.59
2017-03-15T01:10:31.974Z,86.69
2017-03-15T01:10:46.101Z,86.78
2017-03-15T01:11:00.332Z,86.69
2017-03-15T01:11:14.560Z,86.59
2017-03-15T01:11:28.704Z,86.69
2017-03-15T01:11:42.843Z,86.3
2017-03-15T01:11:57.039Z,86.78
2017-03-15T01:12:11.204Z,86.88
2017-03-15T01:12:25.410Z,86.69
2017-03-15T01:12:39.556Z,86.21
2017-03-15T01:12:53.714Z,86.78
2017-03-15T01:13:07.854Z,86.4
2017-03-15T01:13:22.026Z,86.59
2017-03-15T01:13:36.154Z,86.4
2017-03-15T01:13:50.258Z,86.11
2017-03-15T01:14:04.447Z,86.4
2017-03-15T01:14:18.580Z,86.4
2017-03-15T01:14:32.757Z,86.21
2017-03-15T01:14:46.936Z,86.59
2017-03-15T01:15:01.111Z,86.78
2017-03-15T01:15:15.230Z,86.59
2017-03-15T01:15:29.473Z,87.07
2017-03-15T01:15:43.671Z,86.98
2017-03-15T01:15:57.828Z,87.26
2017-03-15T01:16:12.005Z,86.88
2017-03-15T01:16:26.175Z,87.46
2017-03-15T01:16:40.383Z,87.17
2017-03-15T01:16:54.496Z,87.65
2017-03-15T01:17:08.695Z,87.65
2017-03-15T01:17:22.860Z,87.26
2017-03-15T01:17:37.029Z,87.84
2017-03-15T01:17:51.164Z,87.74
2017-03-15T01:18:05.331Z,88.23
2017-03-15T01:18:19.481Z,88.04
2017-03-15T01:18:33.634Z,87.65
2017-03-15T01:18:47.804Z,87.74
2017-03-15T01:19:02.033Z,87.74
2017-03-15T01:19:16.169Z,87.84
2017-03-15T01:19:30.337Z,87.65
2017-03-15T01:19:44.628Z,87.55
2017-03-15T01:19:58.976Z,87.36
2017-03-15T01:20:13.127Z,87.55
2017-03-15T01:20:27.273Z,87.17
2017-03-15T01:20:41.472Z,87.7
2017-03-15T01:20:55.670Z,87.65
2017-03-15T01:21:09.845Z,87.3
2017-03-15T01:21:24.032Z,87.21
2017-03-15T01:21:38.227Z,86.92
2017-03-15T01:21:52.381Z,87.21
2017-03-15T01:22:06.525Z,87.12
2017-03-15T01:22:21.290Z,87.21
2017-03-15T01:22:35.495Z,87.4
2017-03-15T01:22:49.693Z,86.92
2017-03-15T01:23:03.888Z,87.4
2017-03-15T01:23:18.068Z,87.79
2017-03-15T01:23:32.243Z,87.98
2017-03-15T01:23:46.432Z,87.88
2017-03-15T01:24:00.558Z,88.46
2017-03-15T01:24:14.702Z,88.56
2017-03-15T01:24:28.876Z,88.08
2017-03-15T01:24:43.166Z,88.37
2017-03-15T01:25:07.549Z,88.65
2017-03-15T01:25:21.745Z,88.65
2017-03-15T01:25:36.022Z,88.65
2017-03-15T01:25:50.182Z,88.85
2017-03-15T01:26:04.340Z,88.65
2017-03-15T01:26:18.490Z,88.95
2017-03-15T01:26:32.706Z,88.31
2017-03-15T01:26:46.888Z,88.56
2017-03-15T01:27:32.094Z,88.65
2017-03-15T01:28:17.501Z,90.05
2017-03-15T01:28:31.642Z,90.05
2017-03-15T01:28:45.826Z,90.44
2017-03-15T01:28:59.977Z,90.63
2017-03-15T01:29:45.108Z,89.76
2017-03-15T01:29:59.270Z,89.76
2017-03-15T01:30:13.432Z,89.81
2017-03-15T01:30:58.585Z,89.86
2017-03-15T01:31:12.771Z,89.72
2017-03-15T01:31:57.869Z,89.23
2017-03-15T01:32:12.039Z,89.14
2017-03-15T01:32:26.147Z,89.23
2017-03-15T01:32:40.299Z,89.33
2017-03-15T01:32:54.468Z,89.14
2017-03-15T01:33:08.642Z,89.33
2017-03-15T01:33:22.783Z,89.04
2017-03-15T01:33:36.922Z,89.04
2017-03-15T01:33:51.125Z,89.14
2017-03-15T01:34:05.326Z,89.04
2017-03-15T01:34:20.717Z,89.23
2017-03-15T01:34:34.838Z,89.43
2017-03-15T01:34:49.038Z,89.23
2017-03-15T01:35:03.272Z,88.65
2017-03-15T01:35:17.453Z,88.17
2017-03-15T01:35:31.632Z,88.56
2017-03-15T01:35:56.028Z,88.56
2017-03-15T01:36:10.176Z,87.88
2017-03-15T01:36:24.401Z,87.98
2017-03-15T01:36:38.610Z,88.46
2017-03-15T01:36:52.806Z,88.46
2017-03-15T01:37:06.970Z,88.37
2017-03-15T01:37:21.132Z,87.98
2017-03-15T01:37:35.291Z,88.37
2017-03-15T01:37:49.413Z,88.56
2017-03-15T01:38:03.569Z,88.65
2017-03-15T01:38:17.823Z,88.46
2017-03-15T01:38:31.999Z,88.56
2017-03-15T01:38:46.126Z,88.37
2017-03-15T01:39:00.241Z,88.46
2017-03-15T01:39:14.420Z,88.56
2017-03-15T01:39:28.577Z,88.56
2017-03-15T01:39:42.756Z,88.17
2017-03-15T01:39:57.327Z,88.37
2017-03-15T01:40:11.481Z,88.95
2017-03-15T01:40:25.593Z,88.85
2017-03-15T01:40:39.779Z,88.37
2017-03-15T01:40:53.977Z,88.56
2017-03-15T01:41:08.077Z,88.56
2017-03-15T01:41:22.266Z,88.31
2017-03-15T01:41:36.388Z,88.6
2017-03-15T01:41:50.535Z,88.27
2017-03-15T01:42:04.664Z,88.51
2017-03-15T01:42:18.795Z,88.56
2017-03-15T01:42:32.867Z,88.7
2017-03-15T01:42:47.053Z,88.46
2017-03-15T01:43:01.244Z,88.12
2017-03-15T01:43:15.336Z,87.88
2017-03-15T01:43:29.529Z,87.83
2017-03-15T01:43:43.686Z,87.88
2017-03-15T01:43:57.867Z,88.22
2017-03-15T01:44:12.095Z,87.98
2017-03-15T01:44:26.285Z,88.22
2017-03-15T01:44:40.443Z,87.88
2017-03-15T01:44:54.602Z,87.6
2017-03-15T01:45:08.731Z,87.79
2017-03-15T01:45:22.894Z,87.21
2017-03-15T01:45:37.041Z,87.7
2017-03-15T01:45:51.215Z,87.6
2017-03-15T01:46:05.392Z,87.88
2017-03-15T01:46:19.544Z,87.7
2017-03-15T01:46:33.763Z,87.6
2017-03-15T01:46:47.917Z,87.21
2017-03-15T01:47:02.133Z,87.5
2017-03-15T01:47:16.271Z,87.21
2017-03-15T01:47:30.461Z,87.7
2017-03-15T01:47:44.626Z,87.7
2017-03-15T01:47:58.766Z,87.02
2017-03-15T01:48:12.889Z,87.12
2017-03-15T01:48:26.965Z,87.12
2017-03-15T01:48:41.142Z,87.6
2017-03-15T01:48:55.288Z,87.3
2017-03-15T01:49:09.473Z,87.12
2017-03-15T01:49:23.640Z,87.06
2017-03-15T01:49:37.741Z,87.26
2017-03-15T01:49:51.886Z,87.5
2017-03-15T01:50:06.073Z,87.02
2017-03-15T01:50:20.208Z,87.06
2017-03-15T01:50:35.178Z,87.16
2017-03-15T01:50:49.299Z,87.26
2017-03-15T01:51:03.463Z,87.16
2017-03-15T01:51:17.602Z,87.26
2017-03-15T01:51:31.766Z,87.35
2017-03-15T01:52:17.531Z,87.06
2017-03-15T01:52:34.729Z,87.16
2017-03-15T01:52:48.904Z,87.26
2017-03-15T01:53:03.083Z,87.26
2017-03-15T01:53:17.263Z,87.26
2017-03-15T01:53:31.437Z,87.35
2017-03-15T01:53:45.590Z,87.06
2017-03-15T01:53:59.804Z,87.16
2017-03-15T01:54:13.994Z,87.45
2017-03-15T01:54:28.190Z,87.35
2017-03-15T01:54:42.349Z,87.26
2017-03-15T01:54:56.726Z,87.45
2017-03-15T01:55:10.846Z,87.26
2017-03-15T01:55:24.926Z,87.45
2017-03-15T01:55:39.104Z,87.35
2017-03-15T01:55:53.269Z,87.16
2017-03-15T01:56:07.410Z,87.26
2017-03-15T01:56:21.501Z,87.16
2017-03-15T01:56:35.627Z,87.06
2017-03-15T01:56:49.778Z,87.16
2017-03-15T01:57:03.977Z,87.06
2017-03-15T01:57:18.107Z,87.16
2017-03-15T01:57:32.221Z,87.16
2017-03-15T01:57:46.387Z,87.54
2017-03-15T01:58:00.535Z,87.54
2017-03-15T01:58:14.897Z,87.26
2017-03-15T01:58:29.025Z,87.88
2017-03-15T01:58:43.199Z,87.6
2017-03-15T01:58:57.320Z,87.79
2017-03-15T01:59:11.442Z,87.74
2017-03-15T01:59:25.612Z,87.88
2017-03-15T01:59:39.807Z,87.88
2017-03-15T01:59:54.012Z,87.5
2017-03-15T02:00:08.199Z,87.5
2017-03-15T02:00:22.371Z,87.88
2017-03-15T02:00:36.569Z,87.7
2017-03-15T02:00:50.723Z,87.02
2017-03-15T02:01:05.034Z,87.6
2017-03-15T02:01:19.194Z,87.5
2017-03-15T02:01:33.473Z,87.88
2017-03-15T02:01:47.653Z,87.88
2017-03-15T02:02:01.827Z,87.4
2017-03-15T02:02:15.965Z,87.5
2017-03-15T02:02:30.070Z,87.7
2017-03-15T02:02:44.222Z,87.7
2017-03-15T02:02:58.429Z,87.4
2017-03-15T02:03:12.619Z,87.21
2017-03-15T02:03:26.743Z,87.02
2017-03-15T02:03:40.873Z,87.6
2017-03-15T02:03:54.995Z,87.6
2017-03-15T02:04:09.142Z,87.5
2017-03-15T02:04:23.283Z,87.88
2017-03-15T02:04:37.481Z,87.4
2017-03-15T02:04:51.680Z,87.6
2017-03-15T02:05:05.785Z,87.6
2017-03-15T02:05:19.939Z,87.21
2017-03-15T02:05:34.089Z,87.79
2017-03-15T02:05:48.222Z,87.79
2017-03-15T02:06:02.324Z,86.92
2017-03-15T02:06:16.499Z,87.6
2017-03-15T02:06:30.641Z,87.21
2017-03-15T02:06:44.829Z,87.12
2017-03-15T02:06:59.256Z,87.02
2017-03-15T02:07:13.418Z,87.3
2017-03-15T02:07:27.750Z,87.21
2017-03-15T02:07:41.840Z,87.3
2017-03-15T02:07:56.022Z,87.02
2017-03-15T02:08:10.216Z,87.06
2017-03-15T02:08:24.457Z,87.12
2017-03-15T02:08:38.560Z,87.16
2017-03-15T02:08:52.780Z,87.02
2017-03-15T02:09:06.957Z,87.83
2017-03-15T02:09:21.115Z,86.96
2017-03-15T02:09:35.379Z,87.06
2017-03-15T02:09:49.550Z,87.16
2017-03-15T02:10:03.939Z,87.26
2017-03-15T02:10:18.120Z,87.06
2017-03-15T02:10:32.342Z,87.06
2017-03-15T02:10:46.471Z,87.26
2017-03-15T02:11:00.637Z,87.26
2017-03-15T02:11:14.836Z,87.45
2017-03-15T02:11:29.033Z,87.64
2017-03-15T02:11:43.229Z,87.54
2017-03-15T02:11:57.392Z,87.93
2017-03-15T02:12:11.516Z,87.93
2017-03-15T02:12:25.646Z,87.93
2017-03-15T02:12:39.808Z,88.02
2017-03-15T02:12:54.001Z,88.51
2017-03-15T02:13:08.102Z,88.6
2017-03-15T02:13:22.210Z,88.31
2017-03-15T02:13:36.318Z,88.85
2017-03-15T02:13:50.448Z,88.95
2017-03-15T02:14:04.567Z,89.23
2017-03-15T02:14:18.694Z,88.65
2017-03-15T02:14:32.863Z,88.7
2017-03-15T02:14:46.926Z,88.95
2017-03-15T02:15:01.087Z,88.85
2017-03-15T02:15:15.248Z,88.95
2017-03-15T02:15:29.401Z,89.14
2017-03-15T02:15:43.595Z,89.04
2017-03-15T02:15:57.727Z,89.14
2017-03-15T02:16:11.900Z,88.85
2017-03-15T02:16:26.011Z,88.85
2017-03-15T02:16:40.114Z,89.14
2017-03-15T02:16:54.295Z,89.04
2017-03-15T02:17:08.445Z,89.04
2017-03-15T02:17:22.554Z,89.23
2017-03-15T02:17:36.659Z,89.33
2017-03-15T02:17:50.836Z,89.23
2017-03-15T02:18:04.934Z,89.23
2017-03-15T02:18:19.062Z,89.23
2017-03-15T02:18:33.143Z,89.43
2017-03-15T02:18:47.342Z,89.43
2017-03-15T02:19:01.507Z,89.23
2017-03-15T02:19:15.647Z,89.14
2017-03-15T02:19:29.778Z,89.23
2017-03-15T02:19:43.921Z,89.23
2017-03-15T02:19:58.084Z,89.62
2017-03-15T02:20:12.196Z,89.33
2017-03-15T02:20:26.265Z,89.14
2017-03-15T02:20:40.393Z,89.19
2017-03-15T02:20:54.473Z,89.67
2017-03-15T02:21:08.641Z,89.19
2017-03-15T02:21:22.736Z,89.29
2017-03-15T02:21:36.953Z,89.09
2017-03-15T02:21:51.090Z,89.29
2017-03-15T02:22:05.285Z,89.09
2017-03-15T02:22:19.418Z,89.19
2017-03-15T02:22:33.568Z,89.39
2017-03-15T02:22:47.762Z,89.39
2017-03-15T02:23:01.923Z,89.19
2017-03-15T02:23:16.041Z,89.39
2017-03-15T02:23:30.202Z,89.19
2017-03-15T02:23:44.335Z,89.48
2017-03-15T02:23:58.410Z,88.81
2017-03-15T02:24:12.568Z,89.29
2017-03-15T02:24:26.689Z,89.19
2017-03-15T02:24:40.772Z,89.39
2017-03-15T02:24:54.887Z,89.19
2017-03-15T02:25:09.187Z,89.09
2017-03-15T02:25:23.325Z,88.81
2017-03-15T02:25:37.428Z,89.39
2017-03-15T02:25:51.526Z,89.19
2017-03-15T02:26:05.598Z,89.96
2017-03-15T02:26:19.732Z,90.06
2017-03-15T02:26:33.835Z,89.39
2017-03-15T02:26:47.950Z,89.48
2017-03-15T02:27:02.038Z,89.77
2017-03-15T02:27:16.140Z,89.77
2017-03-15T02:27:30.237Z,89.67
2017-03-15T02:27:44.345Z,89.91
2017-03-15T02:27:58.547Z,90.06
2017-03-15T02:28:12.714Z,89.77
2017-03-15T02:28:26.904Z,89.81
2017-03-15T02:28:41.063Z,89.23
2017-03-15T02:28:55.191Z,89.91
2017-03-15T02:29:09.276Z,89.91
2017-03-15T02:29:23.365Z,90
2017-03-15T02:29:37.485Z,89.91
2017-03-15T02:29:51.649Z,89.43
2017-03-15T02:30:05.759Z,89.04
2017-03-15T02:30:19.912Z,89.23
2017-03-15T02:30:34.042Z,89.14
2017-03-15T02:30:48.194Z,88.95
2017-03-15T02:31:02.367Z,88.95
2017-03-15T02:31:16.474Z,89.14
2017-03-15T02:31:30.615Z,88.75
2017-03-15T02:31:44.781Z,88.85
2017-03-15T02:31:58.884Z,88.65
2017-03-15T02:32:13.001Z,89.23
2017-03-15T02:32:27.093Z,88.95
2017-03-15T02:32:41.209Z,88.95
2017-03-15T02:32:55.345Z,88.75
2017-03-15T02:33:09.435Z,89.14
2017-03-15T02:33:23.595Z,89.33
2017-03-15T02:33:37.686Z,88.95
2017-03-15T02:33:51.794Z,88.95
2017-03-15T02:34:05.904Z,88.56
2017-03-15T02:34:20.042Z,88.85
2017-03-15T02:34:34.176Z,88.95
2017-03-15T02:34:48.250Z,88.65
2017-03-15T02:35:02.375Z,88.75
2017-03-15T02:35:16.490Z,88.65
2017-03-15T02:35:30.589Z,88.95
2017-03-15T02:35:44.753Z,88.85
2017-03-15T02:35:58.903Z,88.65
2017-03-15T02:36:13.039Z,88.75
2017-03-15T02:36:27.213Z,89.14
2017-03-15T02:36:41.365Z,88.95
2017-03-15T02:36:55.479Z,88.95
2017-03-15T02:37:09.614Z,89.14
2017-03-15T02:37:23.762Z,90.39
2017-03-15T02:37:37.922Z,90.58
2017-03-15T02:37:52.035Z,89.91
2017-03-15T02:38:06.134Z,90.1
2017-03-15T02:38:20.276Z,90.3
2017-03-15T02:38:34.361Z,90.1
2017-03-15T02:38:48.512Z,90.1
2017-03-15T02:39:02.628Z,90
2017-03-15T02:39:16.832Z,90.1
2017-03-15T02:39:30.956Z,89.81
2017-03-15T02:39:45.117Z,89.72
2017-03-15T02:39:59.281Z,90.1
2017-03-15T02:40:13.682Z,90.1
2017-03-15T02:40:27.837Z,90
2017-03-15T02:40:41.935Z,89.91
2017-03-15T02:40:56.127Z,89.91
2017-03-15T02:41:10.321Z,90
2017-03-15T02:41:24.393Z,89.91
2017-03-15T02:41:38.474Z,90.2
2017-03-15T02:41:52.666Z,89.72
2017-03-15T02:42:06.867Z,89.91
2017-03-15T02:42:20.931Z,89.62
2017-03-15T02:42:35.010Z,89.91
2017-03-15T02:42:49.162Z,90
2017-03-15T02:43:03.326Z,90
2017-03-15T02:43:17.403Z,90
2017-03-15T02:43:31.518Z,90
2017-03-15T02:43:45.713Z,89.81
2017-03-15T02:43:59.864Z,89.62
2017-03-15T02:44:14.037Z,89.72
2017-03-15T02:44:28.187Z,89.81
2017-03-15T02:44:42.272Z,89.62
2017-03-15T02:44:56.430Z,90.1
2017-03-15T02:45:10.541Z,89.72
2017-03-15T02:45:24.637Z,89.72
2017-03-15T02:45:38.798Z,89.91
2017-03-15T02:45:52.910Z,89.43
2017-03-15T02:46:07.041Z,89.72
2017-03-15T02:46:21.192Z,90
2017-03-15T02:46:35.331Z,89.62
2017-03-15T02:46:49.468Z,90.1
2017-03-15T02:47:03.618Z,90
2017-03-15T02:47:17.767Z,89.91
2017-03-15T02:47:31.896Z,89.72
2017-03-15T02:47:46.065Z,89.53
2017-03-15T02:48:00.162Z,89.43
2017-03-15T02:48:14.311Z,89.53
2017-03-15T02:48:28.442Z,89.72
2017-03-15T02:48:42.553Z,89.91
2017-03-15T02:48:56.674Z,89.62
2017-03-15T02:49:10.830Z,89.91
2017-03-15T02:49:24.940Z,90.3
2017-03-15T02:49:39.103Z,90.16
2017-03-15T02:49:53.245Z,89.77
2017-03-15T02:50:07.400Z,90.25
2017-03-15T02:50:21.480Z,89.86
2017-03-15T02:50:35.634Z,90.16
2017-03-15T02:50:49.772Z,90.54
2017-03-15T02:51:03.913Z,89.96
2017-03-15T02:51:18.059Z,89.77
2017-03-15T02:51:32.157Z,90.06
2017-03-15T02:51:46.312Z,89.96
2017-03-15T02:52:00.401Z,89.86
2017-03-15T02:52:14.471Z,90.06
2017-03-15T02:52:28.614Z,90.25
2017-03-15T02:52:42.707Z,90.25
2017-03-15T02:52:56.851Z,89.86
2017-03-15T02:53:11.020Z,90.25
2017-03-15T02:53:25.157Z,89.96
2017-03-15T02:53:39.263Z,89.86
2017-03-15T02:53:53.328Z,90.16
2017-03-15T02:54:07.468Z,89.67
2017-03-15T02:54:21.560Z,90.06
2017-03-15T02:54:35.674Z,90.06
2017-03-15T02:54:49.779Z,90.01
2017-03-15T02:55:03.883Z,89.82
2017-03-15T02:55:18.290Z,89.43
2017-03-15T02:55:32.451Z,89.82
2017-03-15T02:55:46.590Z,89.92
2017-03-15T02:56:00.718Z,89.86
2017-03-15T02:56:14.813Z,89.34
2017-03-15T02:56:28.933Z,89.72
2017-03-15T02:56:43.091Z,89.82
2017-03-15T02:56:57.220Z,89.82
2017-03-15T02:57:11.336Z,89.82
2017-03-15T02:57:25.477Z,89.53
2017-03-15T02:57:39.576Z,89.63
2017-03-15T02:57:53.778Z,89.67
2017-03-15T02:58:07.943Z,89.63
2017-03-15T02:58:22.141Z,89.63
2017-03-15T02:58:36.288Z,89.72
2017-03-15T02:58:50.463Z,89.63
2017-03-15T02:59:04.564Z,89.92
2017-03-15T02:59:18.678Z,89.53
2017-03-15T02:59:32.779Z,89.05
2017-03-15T02:59:46.865Z,89.29
2017-03-15T03:00:00.961Z,89.15
2017-03-15T03:00:15.133Z,89.05
2017-03-15T03:00:29.313Z,89.05
2017-03-15T03:00:43.416Z,89.24
2017-03-15T03:00:57.562Z,89.05
2017-03-15T03:01:11.653Z,88.76
2017-03-15T03:01:25.766Z,88.95
2017-03-15T03:01:39.908Z,88.57
2017-03-15T03:01:54.026Z,88.85
2017-03-15T03:02:08.215Z,88.57
2017-03-15T03:02:22.348Z,88.47
2017-03-15T03:02:36.495Z,88.67
2017-03-15T03:02:50.828Z,88.38
2017-03-15T03:03:04.938Z,88.09
2017-03-15T03:03:19.078Z,88.28
2017-03-15T03:03:33.149Z,88.28
2017-03-15T03:03:47.251Z,88.28
2017-03-15T03:04:01.396Z,88.47
2017-03-15T03:04:15.563Z,88.18
2017-03-15T03:04:29.761Z,88.09
2017-03-15T03:04:43.857Z,88.28
2017-03-15T03:04:58.008Z,88.09
2017-03-15T03:05:12.187Z,88.28
2017-03-15T03:05:26.423Z,88.28
2017-03-15T03:05:40.608Z,88.09
2017-03-15T03:05:54.765Z,88.18
2017-03-15T03:06:08.946Z,88.38
2017-03-15T03:06:23.075Z,88.18
2017-03-15T03:06:37.226Z,88.38